sensor_id;sensor_type;location;lat;lon;timestamp;P1;durP1;ratioP1;P2;durP2;ratioP2
21554;SDS011;10938;44.794;-0.676;2022-07-29T00:00:09;5.05;;;1.80;;
21554;SDS011;10938;44.794;-0.676;2022-07-29T00:02:35;3.00;;;1.77;;
21554;SDS011;10938;44.794;-0.676;2022-07-29T00:05:00;5.40;;;1.95;;
21554;SDS011;10938;44.794;-0.676;2022-07-29T00:07:26;5.10;;;2.22;;
21554;SDS011;10938;44.794;-0.676;2022-07-29T00:09:52;3.38;;;1.50;;
21554;SDS011;10938;44.794;-0.676;2022-07-29T00:12:21;3.28;;;1.60;;
21554;SDS011;10938;44.794;-0.676;2022-07-29T00:14:48;7.53;;;2.40;;
21554;SDS011;10938;44.794;-0.676;2022-07-29T00:17:13;3.75;;;1.73;;
21554;SDS011;10938;44.794;-0.676;2022-07-29T00:19:39;4.55;;;1.70;;
21554;SDS011;10938;44.794;-0.676;2022-07-29T00:22:04;2.92;;;1.60;;
21554;SDS011;10938;44.794;-0.676;2022-07-29T00:24:29;5.70;;;1.92;;
21554;SDS011;10938;44.794;-0.676;2022-07-29T00:26:55;3.05;;;1.65;;
21554;SDS011;10938;44.794;-0.676;2022-07-29T00:29:20;5.00;;;2.03;;
21554;SDS011;10938;44.794;-0.676;2022-07-29T00:31:45;4.07;;;1.88;;
21554;SDS011;10938;44.794;-0.676;2022-07-29T00:34:11;4.47;;;2.10;;
21554;SDS011;10938;44.794;-0.676;2022-07-29T00:36:55;5.68;;;1.73;;
21554;SDS011;10938;44.794;-0.676;2022-07-29T00:39:21;5.75;;;1.63;;
21554;SDS011;10938;44.794;-0.676;2022-07-29T00:41:46;3.60;;;1.50;;
21554;SDS011;10938;44.794;-0.676;2022-07-29T00:44:12;4.45;;;1.70;;
21554;SDS011;10938;44.794;-0.676;2022-07-29T00:46:37;5.28;;;1.70;;
21554;SDS011;10938;44.794;-0.676;2022-07-29T00:49:03;4.43;;;1.90;;
21554;SDS011;10938;44.794;-0.676;2022-07-29T00:51:28;5.82;;;1.83;;
21554;SDS011;10938;44.794;-0.676;2022-07-29T00:53:55;3.95;;;1.77;;
21554;SDS011;10938;44.794;-0.676;2022-07-29T00:56:21;6.00;;;1.83;;
21554;SDS011;10938;44.794;-0.676;2022-07-29T00:58:47;2.85;;;1.85;;
21554;SDS011;10938;44.794;-0.676;2022-07-29T01:01:14;4.72;;;1.90;;
21554;SDS011;10938;44.794;-0.676;2022-07-29T01:03:39;3.97;;;2.10;;
21554;SDS011;10938;44.794;-0.676;2022-07-29T01:06:04;5.88;;;1.90;;
21554;SDS011;10938;44.794;-0.676;2022-07-29T01:08:31;3.28;;;1.63;;
21554;SDS011;10938;44.794;-0.676;2022-07-29T01:10:58;5.07;;;1.98;;
21554;SDS011;10938;44.794;-0.676;2022-07-29T01:13:25;6.90;;;2.25;;
21554;SDS011;10938;44.794;-0.676;2022-07-29T01:15:52;2.88;;;1.67;;
21554;SDS011;10938;44.794;-0.676;2022-07-29T01:18:24;3.58;;;1.70;;
21554;SDS011;10938;44.794;-0.676;2022-07-29T01:31:42;3.25;;;1.83;;
21554;SDS011;10938;44.794;-0.676;2022-07-29T01:34:29;4.93;;;1.75;;
21554;SDS011;10938;44.794;-0.676;2022-07-29T01:39:55;4.22;;;1.88;;
21554;SDS011;10938;44.794;-0.676;2022-07-29T01:45:20;6.10;;;1.65;;
21554;SDS011;10938;44.794;-0.676;2022-07-29T01:47:54;4.45;;;1.70;;
21554;SDS011;10938;44.794;-0.676;2022-07-29T01:50:35;6.13;;;2.53;;
21554;SDS011;10938;44.794;-0.676;2022-07-29T01:53:06;4.13;;;1.95;;
21554;SDS011;10938;44.794;-0.676;2022-07-29T01:55:34;7.55;;;2.00;;
21554;SDS011;10938;44.794;-0.676;2022-07-29T01:58:04;4.22;;;2.08;;
21554;SDS011;10938;44.794;-0.676;2022-07-29T02:00:31;3.42;;;1.63;;
21554;SDS011;10938;44.794;-0.676;2022-07-29T02:02:59;6.78;;;1.90;;
21554;SDS011;10938;44.794;-0.676;2022-07-29T02:05:27;6.00;;;1.75;;
21554;SDS011;10938;44.794;-0.676;2022-07-29T02:07:55;4.55;;;1.83;;
21554;SDS011;10938;44.794;-0.676;2022-07-29T02:10:25;4.82;;;1.80;;
21554;SDS011;10938;44.794;-0.676;2022-07-29T02:12:53;3.35;;;1.80;;
21554;SDS011;10938;44.794;-0.676;2022-07-29T02:15:20;4.97;;;1.92;;
21554;SDS011;10938;44.794;-0.676;2022-07-29T02:17:50;5.70;;;2.03;;
21554;SDS011;10938;44.794;-0.676;2022-07-29T02:20:19;7.22;;;2.47;;
21554;SDS011;10938;44.794;-0.676;2022-07-29T02:22:47;3.97;;;2.15;;
21554;SDS011;10938;44.794;-0.676;2022-07-29T02:25:15;5.72;;;2.05;;
21554;SDS011;10938;44.794;-0.676;2022-07-29T02:27:42;7.07;;;2.03;;
21554;SDS011;10938;44.794;-0.676;2022-07-29T02:30:09;4.63;;;1.92;;
21554;SDS011;10938;44.794;-0.676;2022-07-29T02:32:37;5.47;;;2.10;;
21554;SDS011;10938;44.794;-0.676;2022-07-29T02:35:06;6.32;;;1.88;;
21554;SDS011;10938;44.794;-0.676;2022-07-29T02:37:33;4.90;;;2.15;;
21554;SDS011;10938;44.794;-0.676;2022-07-29T02:40:01;4.10;;;1.92;;
21554;SDS011;10938;44.794;-0.676;2022-07-29T02:42:27;4.18;;;1.88;;
21554;SDS011;10938;44.794;-0.676;2022-07-29T02:44:53;3.83;;;1.90;;
21554;SDS011;10938;44.794;-0.676;2022-07-29T02:50:23;4.03;;;1.90;;
21554;SDS011;10938;44.794;-0.676;2022-07-29T02:53:02;12.53;;;3.47;;
21554;SDS011;10938;44.794;-0.676;2022-07-29T02:55:37;7.45;;;2.70;;
21554;SDS011;10938;44.794;-0.676;2022-07-29T03:00:56;6.65;;;2.50;;
21554;SDS011;10938;44.794;-0.676;2022-07-29T03:03:27;5.47;;;2.33;;
21554;SDS011;10938;44.794;-0.676;2022-07-29T03:05:55;5.88;;;2.50;;
21554;SDS011;10938;44.794;-0.676;2022-07-29T03:08:22;3.72;;;2.28;;
21554;SDS011;10938;44.794;-0.676;2022-07-29T03:10:49;6.38;;;2.25;;
21554;SDS011;10938;44.794;-0.676;2022-07-29T03:13:17;5.45;;;2.08;;
21554;SDS011;10938;44.794;-0.676;2022-07-29T03:15:44;7.90;;;2.03;;
21554;SDS011;10938;44.794;-0.676;2022-07-29T03:18:10;5.38;;;2.17;;
21554;SDS011;10938;44.794;-0.676;2022-07-29T03:20:36;4.03;;;2.03;;
21554;SDS011;10938;44.794;-0.676;2022-07-29T03:23:03;3.85;;;1.90;;
21554;SDS011;10938;44.794;-0.676;2022-07-29T03:25:29;3.75;;;1.80;;
21554;SDS011;10938;44.794;-0.676;2022-07-29T03:27:55;3.97;;;1.95;;
21554;SDS011;10938;44.794;-0.676;2022-07-29T03:30:21;5.78;;;2.08;;
21554;SDS011;10938;44.794;-0.676;2022-07-29T03:32:47;6.38;;;2.22;;
21554;SDS011;10938;44.794;-0.676;2022-07-29T03:35:13;4.25;;;2.10;;
21554;SDS011;10938;44.794;-0.676;2022-07-29T03:37:41;2.83;;;1.73;;
21554;SDS011;10938;44.794;-0.676;2022-07-29T03:40:07;10.75;;;2.47;;
21554;SDS011;10938;44.794;-0.676;2022-07-29T03:42:35;3.65;;;1.77;;
21554;SDS011;10938;44.794;-0.676;2022-07-29T03:45:03;5.38;;;1.92;;
21554;SDS011;10938;44.794;-0.676;2022-07-29T03:47:32;6.55;;;2.03;;
21554;SDS011;10938;44.794;-0.676;2022-07-29T03:50:00;6.57;;;1.90;;
21554;SDS011;10938;44.794;-0.676;2022-07-29T03:52:31;4.82;;;1.80;;
21554;SDS011;10938;44.794;-0.676;2022-07-29T03:54:57;3.83;;;1.73;;
21554;SDS011;10938;44.794;-0.676;2022-07-29T03:57:23;3.85;;;1.95;;
21554;SDS011;10938;44.794;-0.676;2022-07-29T03:59:52;3.97;;;1.80;;
21554;SDS011;10938;44.794;-0.676;2022-07-29T04:02:18;4.18;;;1.60;;
21554;SDS011;10938;44.794;-0.676;2022-07-29T04:04:45;4.57;;;2.10;;
21554;SDS011;10938;44.794;-0.676;2022-07-29T04:07:13;4.28;;;1.77;;
21554;SDS011;10938;44.794;-0.676;2022-07-29T04:09:40;3.55;;;1.75;;
21554;SDS011;10938;44.794;-0.676;2022-07-29T04:12:06;3.30;;;2.17;;
21554;SDS011;10938;44.794;-0.676;2022-07-29T04:14:32;4.32;;;2.17;;
21554;SDS011;10938;44.794;-0.676;2022-07-29T04:16:58;3.65;;;2.10;;
21554;SDS011;10938;44.794;-0.676;2022-07-29T04:19:24;4.18;;;2.33;;
21554;SDS011;10938;44.794;-0.676;2022-07-29T04:21:50;3.78;;;2.03;;
21554;SDS011;10938;44.794;-0.676;2022-07-29T04:24:16;5.97;;;2.50;;
21554;SDS011;10938;44.794;-0.676;2022-07-29T04:26:41;3.17;;;2.08;;
21554;SDS011;10938;44.794;-0.676;2022-07-29T04:29:07;6.07;;;2.30;;
21554;SDS011;10938;44.794;-0.676;2022-07-29T04:31:32;4.90;;;2.28;;
21554;SDS011;10938;44.794;-0.676;2022-07-29T04:33:58;3.83;;;1.92;;
21554;SDS011;10938;44.794;-0.676;2022-07-29T04:36:23;4.60;;;2.90;;
21554;SDS011;10938;44.794;-0.676;2022-07-29T04:38:48;5.40;;;2.28;;
21554;SDS011;10938;44.794;-0.676;2022-07-29T04:41:14;3.95;;;2.20;;
21554;SDS011;10938;44.794;-0.676;2022-07-29T04:43:39;5.80;;;2.22;;
21554;SDS011;10938;44.794;-0.676;2022-07-29T04:46:05;3.42;;;2.10;;
21554;SDS011;10938;44.794;-0.676;2022-07-29T04:48:31;2.20;;;1.90;;
21554;SDS011;10938;44.794;-0.676;2022-07-29T04:50:57;2.38;;;2.00;;
21554;SDS011;10938;44.794;-0.676;2022-07-29T04:53:22;3.88;;;1.88;;
21554;SDS011;10938;44.794;-0.676;2022-07-29T04:55:48;6.53;;;2.30;;
21554;SDS011;10938;44.794;-0.676;2022-07-29T04:58:13;5.18;;;2.15;;
21554;SDS011;10938;44.794;-0.676;2022-07-29T05:00:39;3.20;;;2.20;;
21554;SDS011;10938;44.794;-0.676;2022-07-29T05:03:05;5.97;;;2.90;;
21554;SDS011;10938;44.794;-0.676;2022-07-29T05:05:30;9.02;;;2.88;;
21554;SDS011;10938;44.794;-0.676;2022-07-29T05:07:56;4.63;;;2.50;;
21554;SDS011;10938;44.794;-0.676;2022-07-29T05:10:22;3.22;;;2.53;;
21554;SDS011;10938;44.794;-0.676;2022-07-29T05:12:48;2.95;;;2.58;;
21554;SDS011;10938;44.794;-0.676;2022-07-29T05:15:13;4.95;;;2.80;;
21554;SDS011;10938;44.794;-0.676;2022-07-29T05:17:39;5.05;;;2.42;;
21554;SDS011;10938;44.794;-0.676;2022-07-29T05:20:04;6.47;;;2.90;;
21554;SDS011;10938;44.794;-0.676;2022-07-29T05:22:30;5.35;;;2.40;;
21554;SDS011;10938;44.794;-0.676;2022-07-29T05:24:56;4.95;;;2.40;;
21554;SDS011;10938;44.794;-0.676;2022-07-29T05:27:21;4.35;;;2.17;;
21554;SDS011;10938;44.794;-0.676;2022-07-29T05:29:47;4.40;;;2.47;;
21554;SDS011;10938;44.794;-0.676;2022-07-29T05:32:12;5.53;;;3.20;;
21554;SDS011;10938;44.794;-0.676;2022-07-29T05:34:38;7.30;;;2.67;;
21554;SDS011;10938;44.794;-0.676;2022-07-29T05:37:04;4.80;;;2.65;;
21554;SDS011;10938;44.794;-0.676;2022-07-29T05:39:29;5.40;;;2.85;;
21554;SDS011;10938;44.794;-0.676;2022-07-29T05:41:54;5.03;;;2.42;;
21554;SDS011;10938;44.794;-0.676;2022-07-29T05:44:20;3.92;;;2.85;;
21554;SDS011;10938;44.794;-0.676;2022-07-29T05:46:45;4.65;;;2.60;;
21554;SDS011;10938;44.794;-0.676;2022-07-29T05:49:11;5.43;;;2.22;;
21554;SDS011;10938;44.794;-0.676;2022-07-29T05:51:36;7.25;;;2.63;;
21554;SDS011;10938;44.794;-0.676;2022-07-29T05:54:02;3.60;;;2.30;;
21554;SDS011;10938;44.794;-0.676;2022-07-29T05:56:27;6.90;;;3.13;;
21554;SDS011;10938;44.794;-0.676;2022-07-29T05:58:53;6.55;;;3.08;;
21554;SDS011;10938;44.794;-0.676;2022-07-29T06:01:18;4.47;;;2.42;;
21554;SDS011;10938;44.794;-0.676;2022-07-29T06:03:44;5.88;;;2.97;;
21554;SDS011;10938;44.794;-0.676;2022-07-29T06:06:10;6.60;;;3.30;;
21554;SDS011;10938;44.794;-0.676;2022-07-29T06:08:35;4.03;;;3.22;;
21554;SDS011;10938;44.794;-0.676;2022-07-29T06:11:01;5.47;;;3.05;;
21554;SDS011;10938;44.794;-0.676;2022-07-29T06:13:27;4.13;;;2.50;;
21554;SDS011;10938;44.794;-0.676;2022-07-29T06:15:52;5.40;;;2.70;;
21554;SDS011;10938;44.794;-0.676;2022-07-29T06:18:18;7.07;;;2.90;;
21554;SDS011;10938;44.794;-0.676;2022-07-29T06:20:45;5.07;;;2.70;;
21554;SDS011;10938;44.794;-0.676;2022-07-29T06:23:11;19.05;;;5.03;;
21554;SDS011;10938;44.794;-0.676;2022-07-29T06:25:36;7.28;;;3.67;;
21554;SDS011;10938;44.794;-0.676;2022-07-29T06:28:02;8.13;;;3.25;;
21554;SDS011;10938;44.794;-0.676;2022-07-29T06:30:28;7.25;;;4.72;;
21554;SDS011;10938;44.794;-0.676;2022-07-29T06:32:54;9.48;;;4.07;;
21554;SDS011;10938;44.794;-0.676;2022-07-29T06:35:20;6.85;;;3.90;;
21554;SDS011;10938;44.794;-0.676;2022-07-29T06:37:45;8.02;;;3.65;;
21554;SDS011;10938;44.794;-0.676;2022-07-29T06:40:11;9.85;;;4.22;;
21554;SDS011;10938;44.794;-0.676;2022-07-29T06:43:12;9.50;;;3.90;;
21554;SDS011;10938;44.794;-0.676;2022-07-29T06:45:37;8.57;;;3.08;;
21554;SDS011;10938;44.794;-0.676;2022-07-29T06:48:05;5.15;;;3.10;;
21554;SDS011;10938;44.794;-0.676;2022-07-29T06:50:31;5.18;;;3.50;;
21554;SDS011;10938;44.794;-0.676;2022-07-29T06:52:56;10.65;;;3.72;;
21554;SDS011;10938;44.794;-0.676;2022-07-29T06:55:22;5.70;;;2.92;;
21554;SDS011;10938;44.794;-0.676;2022-07-29T06:57:47;4.10;;;2.70;;
21554;SDS011;10938;44.794;-0.676;2022-07-29T07:00:13;5.63;;;3.10;;
21554;SDS011;10938;44.794;-0.676;2022-07-29T07:02:38;6.20;;;3.20;;
21554;SDS011;10938;44.794;-0.676;2022-07-29T07:05:04;5.45;;;3.50;;
21554;SDS011;10938;44.794;-0.676;2022-07-29T07:07:30;4.93;;;2.90;;
21554;SDS011;10938;44.794;-0.676;2022-07-29T07:09:55;5.68;;;3.45;;
21554;SDS011;10938;44.794;-0.676;2022-07-29T07:12:21;6.43;;;3.33;;
21554;SDS011;10938;44.794;-0.676;2022-07-29T07:14:46;8.02;;;3.50;;
21554;SDS011;10938;44.794;-0.676;2022-07-29T07:17:13;6.32;;;2.83;;
21554;SDS011;10938;44.794;-0.676;2022-07-29T07:19:38;5.55;;;3.17;;
21554;SDS011;10938;44.794;-0.676;2022-07-29T07:22:04;5.20;;;3.00;;
21554;SDS011;10938;44.794;-0.676;2022-07-29T07:24:29;6.75;;;3.08;;
21554;SDS011;10938;44.794;-0.676;2022-07-29T07:26:54;8.20;;;3.40;;
21554;SDS011;10938;44.794;-0.676;2022-07-29T07:29:20;5.95;;;2.58;;
21554;SDS011;10938;44.794;-0.676;2022-07-29T07:31:45;6.25;;;2.72;;
21554;SDS011;10938;44.794;-0.676;2022-07-29T07:34:11;8.38;;;3.78;;
21554;SDS011;10938;44.794;-0.676;2022-07-29T07:36:36;6.85;;;2.80;;
21554;SDS011;10938;44.794;-0.676;2022-07-29T07:39:02;7.63;;;3.45;;
21554;SDS011;10938;44.794;-0.676;2022-07-29T07:41:28;8.38;;;2.70;;
21554;SDS011;10938;44.794;-0.676;2022-07-29T07:43:53;7.38;;;2.28;;
21554;SDS011;10938;44.794;-0.676;2022-07-29T07:46:19;5.18;;;2.17;;
21554;SDS011;10938;44.794;-0.676;2022-07-29T07:48:44;5.25;;;2.40;;
21554;SDS011;10938;44.794;-0.676;2022-07-29T07:51:10;3.83;;;2.20;;
21554;SDS011;10938;44.794;-0.676;2022-07-29T07:53:35;4.00;;;2.10;;
21554;SDS011;10938;44.794;-0.676;2022-07-29T07:56:00;8.68;;;2.35;;
21554;SDS011;10938;44.794;-0.676;2022-07-29T07:58:26;3.65;;;2.20;;
21554;SDS011;10938;44.794;-0.676;2022-07-29T08:00:51;3.30;;;2.15;;
21554;SDS011;10938;44.794;-0.676;2022-07-29T08:03:17;5.43;;;2.28;;
21554;SDS011;10938;44.794;-0.676;2022-07-29T08:05:42;4.32;;;2.13;;
21554;SDS011;10938;44.794;-0.676;2022-07-29T08:08:08;5.88;;;1.90;;
21554;SDS011;10938;44.794;-0.676;2022-07-29T08:10:34;3.45;;;1.70;;
21554;SDS011;10938;44.794;-0.676;2022-07-29T08:13:20;3.90;;;2.00;;
21554;SDS011;10938;44.794;-0.676;2022-07-29T08:15:48;3.28;;;1.90;;
21554;SDS011;10938;44.794;-0.676;2022-07-29T08:18:22;4.07;;;1.65;;
21554;SDS011;10938;44.794;-0.676;2022-07-29T08:20:49;4.75;;;2.20;;
21554;SDS011;10938;44.794;-0.676;2022-07-29T08:23:15;4.15;;;1.98;;
21554;SDS011;10938;44.794;-0.676;2022-07-29T08:25:40;6.53;;;2.28;;
21554;SDS011;10938;44.794;-0.676;2022-07-29T08:28:06;5.07;;;2.25;;
21554;SDS011;10938;44.794;-0.676;2022-07-29T08:30:32;10.32;;;2.20;;
21554;SDS011;10938;44.794;-0.676;2022-07-29T08:32:58;7.03;;;2.58;;
21554;SDS011;10938;44.794;-0.676;2022-07-29T08:35:24;5.70;;;2.50;;
21554;SDS011;10938;44.794;-0.676;2022-07-29T08:37:50;5.25;;;2.65;;
21554;SDS011;10938;44.794;-0.676;2022-07-29T08:40:16;10.25;;;2.40;;
21554;SDS011;10938;44.794;-0.676;2022-07-29T08:42:44;4.90;;;2.20;;
21554;SDS011;10938;44.794;-0.676;2022-07-29T08:45:10;4.15;;;2.20;;
21554;SDS011;10938;44.794;-0.676;2022-07-29T08:47:36;5.85;;;2.20;;
21554;SDS011;10938;44.794;-0.676;2022-07-29T08:50:07;5.55;;;2.10;;
21554;SDS011;10938;44.794;-0.676;2022-07-29T08:52:38;4.20;;;2.40;;
21554;SDS011;10938;44.794;-0.676;2022-07-29T08:55:05;4.07;;;1.90;;
21554;SDS011;10938;44.794;-0.676;2022-07-29T08:57:33;3.80;;;1.80;;
21554;SDS011;10938;44.794;-0.676;2022-07-29T09:00:00;3.10;;;1.60;;
21554;SDS011;10938;44.794;-0.676;2022-07-29T09:02:28;4.43;;;2.10;;
21554;SDS011;10938;44.794;-0.676;2022-07-29T09:05:00;5.35;;;1.83;;
21554;SDS011;10938;44.794;-0.676;2022-07-29T09:07:27;6.63;;;2.10;;
21554;SDS011;10938;44.794;-0.676;2022-07-29T09:09:53;4.13;;;1.85;;
21554;SDS011;10938;44.794;-0.676;2022-07-29T09:12:18;3.78;;;1.92;;
21554;SDS011;10938;44.794;-0.676;2022-07-29T09:14:45;3.35;;;1.60;;
21554;SDS011;10938;44.794;-0.676;2022-07-29T09:17:10;2.70;;;1.60;;
21554;SDS011;10938;44.794;-0.676;2022-07-29T09:19:36;3.92;;;1.60;;
21554;SDS011;10938;44.794;-0.676;2022-07-29T09:22:05;6.95;;;1.85;;
21554;SDS011;10938;44.794;-0.676;2022-07-29T09:24:45;3.05;;;1.30;;
21554;SDS011;10938;44.794;-0.676;2022-07-29T09:27:24;3.08;;;1.70;;
21554;SDS011;10938;44.794;-0.676;2022-07-29T09:32:53;3.75;;;1.95;;
21554;SDS011;10938;44.794;-0.676;2022-07-29T09:37:48;4.75;;;2.03;;
21554;SDS011;10938;44.794;-0.676;2022-07-29T09:40:14;4.80;;;2.35;;
21554;SDS011;10938;44.794;-0.676;2022-07-29T09:42:41;3.35;;;2.25;;
21554;SDS011;10938;44.794;-0.676;2022-07-29T09:45:07;4.22;;;2.47;;
21554;SDS011;10938;44.794;-0.676;2022-07-29T09:47:44;4.28;;;2.20;;
21554;SDS011;10938;44.794;-0.676;2022-07-29T09:50:13;6.93;;;2.25;;
21554;SDS011;10938;44.794;-0.676;2022-07-29T09:52:46;4.10;;;2.30;;
21554;SDS011;10938;44.794;-0.676;2022-07-29T09:55:14;4.47;;;2.65;;
21554;SDS011;10938;44.794;-0.676;2022-07-29T09:57:41;4.18;;;2.10;;
21554;SDS011;10938;44.794;-0.676;2022-07-29T10:00:09;3.35;;;1.60;;
21554;SDS011;10938;44.794;-0.676;2022-07-29T10:02:36;4.85;;;2.20;;
21554;SDS011;10938;44.794;-0.676;2022-07-29T10:05:04;2.65;;;1.67;;
21554;SDS011;10938;44.794;-0.676;2022-07-29T10:07:46;3.13;;;1.65;;
21554;SDS011;10938;44.794;-0.676;2022-07-29T10:10:23;3.45;;;1.80;;
21554;SDS011;10938;44.794;-0.676;2022-07-29T10:12:57;3.35;;;1.92;;
21554;SDS011;10938;44.794;-0.676;2022-07-29T10:15:25;4.25;;;1.83;;
21554;SDS011;10938;44.794;-0.676;2022-07-29T10:17:52;3.80;;;1.80;;
21554;SDS011;10938;44.794;-0.676;2022-07-29T10:20:23;4.88;;;1.70;;
21554;SDS011;10938;44.794;-0.676;2022-07-29T10:22:49;4.10;;;1.73;;
21554;SDS011;10938;44.794;-0.676;2022-07-29T10:25:16;3.28;;;1.60;;
21554;SDS011;10938;44.794;-0.676;2022-07-29T10:27:43;4.22;;;2.00;;
21554;SDS011;10938;44.794;-0.676;2022-07-29T10:30:10;2.20;;;1.60;;
21554;SDS011;10938;44.794;-0.676;2022-07-29T10:32:43;4.65;;;1.70;;
21554;SDS011;10938;44.794;-0.676;2022-07-29T10:46:47;3.50;;;1.70;;
21554;SDS011;10938;44.794;-0.676;2022-07-29T10:57:10;6.00;;;1.93;;
21554;SDS011;10938;44.794;-0.676;2022-07-29T10:59:37;2.25;;;1.60;;
21554;SDS011;10938;44.794;-0.676;2022-07-29T11:02:02;2.65;;;1.58;;
21554;SDS011;10938;44.794;-0.676;2022-07-29T11:05:05;3.53;;;2.20;;
21554;SDS011;10938;44.794;-0.676;2022-07-29T11:07:37;4.32;;;1.70;;
21554;SDS011;10938;44.794;-0.676;2022-07-29T11:15:07;2.90;;;1.50;;
21554;SDS011;10938;44.794;-0.676;2022-07-29T11:20:36;3.55;;;1.75;;
21554;SDS011;10938;44.794;-0.676;2022-07-29T11:28:39;4.10;;;1.73;;
21554;SDS011;10938;44.794;-0.676;2022-07-29T11:31:15;2.83;;;1.92;;
21554;SDS011;10938;44.794;-0.676;2022-07-29T11:33:41;2.17;;;1.55;;
21554;SDS011;10938;44.794;-0.676;2022-07-29T11:38:32;3.65;;;1.60;;
21554;SDS011;10938;44.794;-0.676;2022-07-29T11:43:48;3.22;;;1.63;;
21554;SDS011;10938;44.794;-0.676;2022-07-29T11:49:11;2.25;;;1.40;;
21554;SDS011;10938;44.794;-0.676;2022-07-29T11:51:37;3.65;;;1.70;;
21554;SDS011;10938;44.794;-0.676;2022-07-29T11:54:03;3.30;;;1.40;;
21554;SDS011;10938;44.794;-0.676;2022-07-29T11:56:30;2.67;;;1.80;;
21554;SDS011;10938;44.794;-0.676;2022-07-29T11:59:06;3.20;;;1.48;;
21554;SDS011;10938;44.794;-0.676;2022-07-29T12:01:34;2.33;;;1.60;;
21554;SDS011;10938;44.794;-0.676;2022-07-29T12:04:06;4.13;;;1.50;;
21554;SDS011;10938;44.794;-0.676;2022-07-29T12:06:33;3.17;;;1.40;;
21554;SDS011;10938;44.794;-0.676;2022-07-29T12:08:59;3.40;;;1.52;;
21554;SDS011;10938;44.794;-0.676;2022-07-29T12:11:25;2.58;;;1.50;;
21554;SDS011;10938;44.794;-0.676;2022-07-29T12:13:50;3.63;;;1.40;;
21554;SDS011;10938;44.794;-0.676;2022-07-29T12:16:16;3.35;;;1.55;;
21554;SDS011;10938;44.794;-0.676;2022-07-29T12:18:42;5.97;;;1.60;;
21554;SDS011;10938;44.794;-0.676;2022-07-29T12:21:20;3.90;;;1.33;;
21554;SDS011;10938;44.794;-0.676;2022-07-29T12:23:51;2.10;;;1.10;;
21554;SDS011;10938;44.794;-0.676;2022-07-29T12:26:19;1.35;;;1.13;;
21554;SDS011;10938;44.794;-0.676;2022-07-29T12:28:44;1.65;;;1.20;;
21554;SDS011;10938;44.794;-0.676;2022-07-29T12:31:13;2.75;;;1.30;;
21554;SDS011;10938;44.794;-0.676;2022-07-29T12:33:40;2.45;;;1.10;;
21554;SDS011;10938;44.794;-0.676;2022-07-29T12:36:06;1.70;;;1.30;;
21554;SDS011;10938;44.794;-0.676;2022-07-29T12:38:33;7.50;;;1.60;;
21554;SDS011;10938;44.794;-0.676;2022-07-29T12:41:01;1.60;;;1.20;;
21554;SDS011;10938;44.794;-0.676;2022-07-29T12:43:27;2.47;;;1.23;;
21554;SDS011;10938;44.794;-0.676;2022-07-29T12:45:56;4.18;;;1.30;;
21554;SDS011;10938;44.794;-0.676;2022-07-29T12:48:35;2.97;;;1.45;;
21554;SDS011;10938;44.794;-0.676;2022-07-29T12:51:04;2.15;;;1.25;;
21554;SDS011;10938;44.794;-0.676;2022-07-29T12:53:32;1.90;;;1.10;;
21554;SDS011;10938;44.794;-0.676;2022-07-29T12:55:59;3.47;;;1.30;;
21554;SDS011;10938;44.794;-0.676;2022-07-29T13:03:28;4.23;;;1.40;;
21554;SDS011;10938;44.794;-0.676;2022-07-29T13:05:54;1.98;;;1.05;;
21554;SDS011;10938;44.794;-0.676;2022-07-29T13:08:19;1.85;;;1.15;;
21554;SDS011;10938;44.794;-0.676;2022-07-29T13:10:45;2.35;;;1.20;;
21554;SDS011;10938;44.794;-0.676;2022-07-29T13:13:12;5.13;;;2.25;;
21554;SDS011;10938;44.794;-0.676;2022-07-29T13:15:40;4.20;;;1.75;;
21554;SDS011;10938;44.794;-0.676;2022-07-29T13:20:55;2.00;;;1.20;;
21554;SDS011;10938;44.794;-0.676;2022-07-29T13:23:21;1.50;;;1.10;;
21554;SDS011;10938;44.794;-0.676;2022-07-29T13:25:47;3.55;;;1.30;;
21554;SDS011;10938;44.794;-0.676;2022-07-29T13:28:12;1.30;;;1.17;;
21554;SDS011;10938;44.794;-0.676;2022-07-29T13:30:39;3.63;;;1.10;;
21554;SDS011;10938;44.794;-0.676;2022-07-29T13:33:04;1.95;;;1.15;;
21554;SDS011;10938;44.794;-0.676;2022-07-29T13:35:30;1.80;;;1.05;;
21554;SDS011;10938;44.794;-0.676;2022-07-29T13:37:55;1.95;;;1.10;;
21554;SDS011;10938;44.794;-0.676;2022-07-29T13:40:21;1.58;;;1.00;;
21554;SDS011;10938;44.794;-0.676;2022-07-29T13:42:46;1.92;;;1.00;;
21554;SDS011;10938;44.794;-0.676;2022-07-29T13:45:12;1.55;;;1.00;;
21554;SDS011;10938;44.794;-0.676;2022-07-29T13:47:38;1.30;;;1.00;;
21554;SDS011;10938;44.794;-0.676;2022-07-29T13:50:04;2.53;;;0.90;;
21554;SDS011;10938;44.794;-0.676;2022-07-29T13:52:31;0.82;;;0.70;;
21554;SDS011;10938;44.794;-0.676;2022-07-29T13:54:57;1.08;;;0.80;;
21554;SDS011;10938;44.794;-0.676;2022-07-29T13:57:22;1.23;;;0.90;;
21554;SDS011;10938;44.794;-0.676;2022-07-29T13:59:48;1.50;;;1.00;;
21554;SDS011;10938;44.794;-0.676;2022-07-29T14:02:13;1.10;;;0.80;;
21554;SDS011;10938;44.794;-0.676;2022-07-29T14:04:39;2.15;;;0.70;;
21554;SDS011;10938;44.794;-0.676;2022-07-29T14:07:05;3.22;;;0.80;;
21554;SDS011;10938;44.794;-0.676;2022-07-29T14:09:31;1.02;;;0.70;;
21554;SDS011;10938;44.794;-0.676;2022-07-29T14:11:57;0.98;;;0.68;;
21554;SDS011;10938;44.794;-0.676;2022-07-29T14:14:23;0.60;;;0.57;;
21554;SDS011;10938;44.794;-0.676;2022-07-29T14:16:48;2.83;;;0.70;;
21554;SDS011;10938;44.794;-0.676;2022-07-29T14:19:14;0.70;;;0.70;;
21554;SDS011;10938;44.794;-0.676;2022-07-29T14:21:39;1.65;;;0.77;;
21554;SDS011;10938;44.794;-0.676;2022-07-29T14:24:05;0.60;;;0.60;;
21554;SDS011;10938;44.794;-0.676;2022-07-29T14:26:31;0.90;;;0.40;;
21554;SDS011;10938;44.794;-0.676;2022-07-29T14:28:57;0.55;;;0.50;;
21554;SDS011;10938;44.794;-0.676;2022-07-29T14:31:22;0.93;;;0.70;;
21554;SDS011;10938;44.794;-0.676;2022-07-29T14:33:47;0.82;;;0.55;;
21554;SDS011;10938;44.794;-0.676;2022-07-29T14:36:13;1.17;;;0.63;;
21554;SDS011;10938;44.794;-0.676;2022-07-29T14:38:38;0.80;;;0.63;;
21554;SDS011;10938;44.794;-0.676;2022-07-29T14:41:05;0.70;;;0.60;;
21554;SDS011;10938;44.794;-0.676;2022-07-29T14:43:31;0.88;;;0.52;;
21554;SDS011;10938;44.794;-0.676;2022-07-29T14:45:57;1.98;;;0.52;;
21554;SDS011;10938;44.794;-0.676;2022-07-29T14:48:22;1.20;;;0.70;;
21554;SDS011;10938;44.794;-0.676;2022-07-29T14:50:47;1.15;;;0.60;;
21554;SDS011;10938;44.794;-0.676;2022-07-29T14:53:13;2.90;;;0.70;;
21554;SDS011;10938;44.794;-0.676;2022-07-29T14:55:39;1.15;;;0.70;;
21554;SDS011;10938;44.794;-0.676;2022-07-29T14:58:05;0.50;;;0.50;;
21554;SDS011;10938;44.794;-0.676;2022-07-29T15:00:31;1.85;;;0.80;;
21554;SDS011;10938;44.794;-0.676;2022-07-29T15:03:00;0.60;;;0.60;;
21554;SDS011;10938;44.794;-0.676;2022-07-29T15:05:26;0.98;;;0.60;;
21554;SDS011;10938;44.794;-0.676;2022-07-29T15:07:52;2.45;;;0.70;;
21554;SDS011;10938;44.794;-0.676;2022-07-29T15:10:17;0.60;;;0.60;;
21554;SDS011;10938;44.794;-0.676;2022-07-29T15:12:43;0.90;;;0.50;;
21554;SDS011;10938;44.794;-0.676;2022-07-29T15:15:08;0.65;;;0.50;;
21554;SDS011;10938;44.794;-0.676;2022-07-29T15:17:34;1.85;;;0.88;;
21554;SDS011;10938;44.794;-0.676;2022-07-29T15:19:59;0.80;;;0.60;;
21554;SDS011;10938;44.794;-0.676;2022-07-29T15:22:25;0.90;;;0.57;;
21554;SDS011;10938;44.794;-0.676;2022-07-29T15:24:51;1.08;;;0.70;;
21554;SDS011;10938;44.794;-0.676;2022-07-29T15:27:16;0.98;;;0.68;;
21554;SDS011;10938;44.794;-0.676;2022-07-29T15:29:41;2.72;;;0.80;;
21554;SDS011;10938;44.794;-0.676;2022-07-29T15:32:08;1.10;;;0.70;;
21554;SDS011;10938;44.794;-0.676;2022-07-29T15:34:34;0.93;;;0.70;;
21554;SDS011;10938;44.794;-0.676;2022-07-29T15:37:00;1.63;;;0.63;;
21554;SDS011;10938;44.794;-0.676;2022-07-29T15:39:25;1.95;;;0.70;;
21554;SDS011;10938;44.794;-0.676;2022-07-29T15:41:51;0.85;;;0.82;;
21554;SDS011;10938;44.794;-0.676;2022-07-29T15:44:16;1.05;;;0.68;;
21554;SDS011;10938;44.794;-0.676;2022-07-29T15:46:42;0.85;;;0.70;;
21554;SDS011;10938;44.794;-0.676;2022-07-29T15:49:26;1.70;;;0.60;;